createdAt,value
2023-01-22T00:01:35.273Z,102197.12
2023-01-22T00:04:10.243Z,102196.64
2023-01-22T00:06:44.352Z,102201.02
2023-01-22T00:09:18.913Z,102205.34
2023-01-22T00:11:52.868Z,102203.44
2023-01-22T00:14:28.073Z,102203.73
2023-01-22T00:17:02.389Z,102203.96
2023-01-22T00:19:35.261Z,102206.67
2023-01-22T00:22:08.686Z,102200.69
2023-01-22T00:24:43.673Z,102201.44
2023-01-22T00:27:18.295Z,102203.21
2023-01-22T00:29:51.861Z,102207.86
2023-01-22T00:32:25.738Z,102206.71
2023-01-22T00:34:59.121Z,102206.19
2023-01-22T00:37:33.309Z,102205.85
2023-01-22T00:40:10.943Z,102204.33
2023-01-22T00:42:44.306Z,102203.62
2023-01-22T00:45:20.016Z,102204.24
2023-01-22T00:47:53.612Z,102206.41
2023-01-22T00:50:27.972Z,102205.90
2023-01-22T00:53:01.004Z,102211.16
2023-01-22T00:55:33.659Z,102210.09
2023-01-22T00:58:06.752Z,102210.67
2023-01-22T01:00:40.067Z,102207.05
2023-01-22T01:03:30.576Z,102212.36
2023-01-22T01:06:05.814Z,102210.31
2023-01-22T01:08:42.245Z,102216.00
2023-01-22T01:11:19.301Z,102211.51
2023-01-22T01:13:55.395Z,102213.30
2023-01-22T01:16:30.650Z,102211.73
2023-01-22T01:19:06.253Z,102210.88
2023-01-22T01:21:40.952Z,102212.59
2023-01-22T01:24:15.373Z,102215.62
2023-01-22T01:26:49.034Z,102212.89
2023-01-22T01:29:22.847Z,102219.35
2023-01-22T01:31:56.099Z,102215.59
2023-01-22T01:34:29.216Z,102217.08
2023-01-22T01:37:03.471Z,102219.67
2023-01-22T01:39:37.180Z,102217.73
2023-01-22T01:42:10.776Z,102218.12
2023-01-22T01:44:46.260Z,102219.38
2023-01-22T01:47:33.612Z,102221.20
2023-01-22T01:50:09.265Z,102222.27
2023-01-22T01:52:43.351Z,102220.73
2023-01-22T01:55:23.575Z,102220.93
2023-01-22T01:57:59.447Z,102221.71
2023-01-22T02:00:38.205Z,102225.13
2023-01-22T02:03:13.500Z,102226.55
2023-01-22T02:05:47.954Z,102225.06
2023-01-22T02:08:21.052Z,102228.85
2023-01-22T02:10:55.458Z,102230.94
2023-01-22T02:13:34.326Z,102234.05
2023-01-22T02:16:11.874Z,102234.02
2023-01-22T02:18:48.246Z,102236.41
2023-01-22T02:21:38.465Z,102237.06
2023-01-22T02:24:14.211Z,102237.80
2023-01-22T02:26:47.733Z,102238.02
2023-01-22T02:29:26.703Z,102236.75
2023-01-22T02:32:00.481Z,102236.13
2023-01-22T02:34:35.863Z,102233.23
2023-01-22T02:37:09.406Z,102237.73
2023-01-22T02:39:44.283Z,102234.73
2023-01-22T02:42:18.734Z,102236.17
2023-01-22T02:44:53.292Z,102241.85
2023-01-22T02:47:26.424Z,102248.27
2023-01-22T02:49:59.373Z,102246.86
2023-01-22T02:52:32.584Z,102252.86
2023-01-22T02:55:06.158Z,102255.69
2023-01-22T02:57:40.423Z,102254.74
2023-01-22T03:00:15.775Z,102260.06
2023-01-22T03:02:48.930Z,102265.60
2023-01-22T03:05:25.446Z,102265.52
2023-01-22T03:07:58.326Z,102264.55
2023-01-22T03:10:31.918Z,102268.08
2023-01-22T03:13:23.481Z,102268.50
2023-01-22T03:16:14.394Z,102272.58
2023-01-22T03:19:04.785Z,102269.79
2023-01-22T03:21:43.997Z,102271.95
2023-01-22T03:24:17.233Z,102271.83
2023-01-22T03:26:49.895Z,102269.75
2023-01-22T03:29:24.122Z,102272.13
2023-01-22T03:31:57.866Z,102275.14
2023-01-22T03:34:31.416Z,102278.36
2023-01-22T03:37:04.615Z,102280.49
2023-01-22T03:39:39.087Z,102284.73
2023-01-22T03:42:12.427Z,102288.73
2023-01-22T03:44:45.714Z,102293.05
2023-01-22T03:47:20.446Z,102292.34
2023-01-22T03:49:54.352Z,102298.83
2023-01-22T03:52:27.025Z,102299.05
2023-01-22T03:55:00.723Z,102293.55
2023-01-22T03:57:34.773Z,102299.38
2023-01-22T04:00:13.170Z,102302.64
2023-01-22T04:02:50.270Z,102306.21
2023-01-22T04:05:27.477Z,102306.63
2023-01-22T04:08:00.609Z,102309.81
2023-01-22T04:10:37.415Z,102308.33
2023-01-22T04:13:11.190Z,102311.84
2023-01-22T04:15:48.027Z,102312.19
2023-01-22T04:18:40.343Z,102310.36
2023-01-22T04:21:24.775Z,102309.48
2023-01-22T04:24:02.251Z,102308.95
2023-01-22T04:26:36.749Z,102308.28
2023-01-22T04:29:12.267Z,102307.39
2023-01-22T04:31:46.095Z,102306.05
2023-01-22T04:34:25.212Z,102305.98
2023-01-22T04:37:08.838Z,102305.30
2023-01-22T04:39:41.705Z,102301.73
2023-01-22T04:42:16.146Z,102304.27
2023-01-22T04:44:49.562Z,102310.80
2023-01-22T04:47:23.044Z,102313.73
2023-01-22T04:49:56.503Z,102320.23
2023-01-22T04:52:30.809Z,102324.74
2023-01-22T04:55:03.626Z,102328.20
2023-01-22T04:57:48.086Z,102326.40
2023-01-22T05:00:23.902Z,102330.62
2023-01-22T05:03:02.774Z,102336.38
2023-01-22T05:05:37.123Z,102335.86
2023-01-22T05:08:11.590Z,102335.91
2023-01-22T05:10:46.220Z,102338.20
2023-01-22T05:13:25.191Z,102340.89
2023-01-22T05:15:59.573Z,102345.31
2023-01-22T05:18:32.847Z,102350.85
2023-01-22T05:21:08.628Z,102343.47
2023-01-22T05:23:43.834Z,102347.71
2023-01-22T05:26:16.868Z,102348.08
2023-01-22T05:29:04.506Z,102353.98
2023-01-22T05:31:51.134Z,102355.77
2023-01-22T05:34:37.939Z,102355.77
2023-01-22T05:37:11.504Z,102358.81
2023-01-22T05:39:52.297Z,102359.33
2023-01-22T05:42:26.141Z,102358.04
2023-01-22T05:45:00.005Z,102365.17
2023-01-22T05:47:34.731Z,102368.41
2023-01-22T05:50:20.397Z,102372.98
2023-01-22T05:52:58.470Z,102374.16
2023-01-22T05:55:32.156Z,102378.57
2023-01-22T05:58:06.800Z,102376.00
2023-01-22T06:00:41.636Z,102379.37
2023-01-22T06:03:17.474Z,102383.05
2023-01-22T06:06:00.696Z,102385.63
2023-01-22T06:08:35.202Z,102386.15
2023-01-22T06:11:13.123Z,102390.15
2023-01-22T06:13:48.632Z,102387.30
2023-01-22T06:16:27.080Z,102394.87
2023-01-22T06:19:19.985Z,102400.70
2023-01-22T06:22:02.280Z,102399.20
2023-01-22T06:24:47.465Z,102408.20
2023-01-22T06:27:22.112Z,102406.56
2023-01-22T06:30:00.959Z,102412.30
2023-01-22T06:32:43.587Z,102416.61
2023-01-22T06:35:18.840Z,102424.98
2023-01-22T06:37:53.272Z,102427.16
2023-01-22T06:40:27.089Z,102431.24
2023-01-22T06:43:03.198Z,102431.78
2023-01-22T06:45:39.391Z,102436.27
2023-01-22T06:48:14.811Z,102439.28
2023-01-22T06:50:49.141Z,102444.73
2023-01-22T06:53:22.546Z,102447.33
2023-01-22T06:55:56.617Z,102448.20
2023-01-22T06:58:30.336Z,102450.59
2023-01-22T07:01:07.118Z,102452.23
2023-01-22T07:03:40.856Z,102453.88
2023-01-22T07:06:15.339Z,102454.70
2023-01-22T07:08:49.613Z,102452.95
2023-01-22T07:11:22.351Z,102461.89
2023-01-22T07:13:57.257Z,102459.20
2023-01-22T07:16:31.133Z,102464.05
2023-01-22T07:19:06.277Z,102470.30
2023-01-22T07:21:41.354Z,102471.85
2023-01-22T07:24:15.111Z,102474.79
2023-01-22T07:26:49.449Z,102475.83
2023-01-22T07:29:23.441Z,102478.42
2023-01-22T07:31:56.660Z,102481.29
2023-01-22T07:34:30.363Z,102482.66
2023-01-22T07:37:04.034Z,102485.02
2023-01-22T07:39:37.304Z,102488.08
2023-01-22T07:42:10.472Z,102490.45
2023-01-22T07:44:44.170Z,102488.94
2023-01-22T07:47:17.402Z,102495.17
2023-01-22T07:49:50.327Z,102496.98
2023-01-22T07:52:23.366Z,102498.25
2023-01-22T07:54:57.106Z,102497.59
2023-01-22T07:57:29.751Z,102495.95
2023-01-22T08:00:02.973Z,102492.39
2023-01-22T08:02:45.706Z,102489.33
2023-01-22T08:05:18.981Z,102490.05
2023-01-22T08:07:52.258Z,102496.13
2023-01-22T08:10:26.123Z,102496.83
2023-01-22T08:13:00.059Z,102501.08
2023-01-22T08:15:32.756Z,102504.05
2023-01-22T08:18:07.714Z,102504.70
2023-01-22T08:20:40.322Z,102505.77
2023-01-22T08:23:13.451Z,102508.89
2023-01-22T08:25:48.440Z,102514.56
2023-01-22T08:28:21.122Z,102517.85
2023-01-22T08:30:58.168Z,102516.89
2023-01-22T08:33:33.478Z,102517.05
2023-01-22T08:36:07.391Z,102521.45
2023-01-22T08:38:40.664Z,102524.67
2023-01-22T08:41:14.014Z,102523.34
2023-01-22T08:43:46.874Z,102522.92
2023-01-22T08:46:20.144Z,102524.85
2023-01-22T08:48:52.764Z,102525.58
2023-01-22T08:51:26.786Z,102530.06
2023-01-22T08:54:01.690Z,102535.20
2023-01-22T08:56:34.341Z,102540.92
2023-01-22T08:59:07.466Z,102543.91
2023-01-22T09:01:40.124Z,102547.67
2023-01-22T09:04:14.692Z,102548.23
2023-01-22T09:06:47.531Z,102550.45
2023-01-22T09:09:20.343Z,102553.05
2023-01-22T09:11:53.267Z,102557.16
2023-01-22T09:14:27.102Z,102560.05
2023-01-22T09:16:59.739Z,102558.31
2023-01-22T09:19:32.742Z,102563.30
2023-01-22T09:22:07.505Z,102567.35
2023-01-22T09:24:41.180Z,102568.70
2023-01-22T09:27:14.169Z,102564.84
2023-01-22T09:29:46.774Z,102569.19
2023-01-22T09:32:19.933Z,102568.41
2023-01-22T09:34:53.232Z,102567.22
2023-01-22T09:37:27.129Z,102570.23
2023-01-22T09:39:59.692Z,102566.21
2023-01-22T09:42:40.353Z,102568.41
2023-01-22T09:45:16.968Z,102570.84
2023-01-22T09:47:55.142Z,102577.63
2023-01-22T09:50:30.356Z,102575.43
2023-01-22T09:53:07.621Z,102575.91
2023-01-22T09:55:45.231Z,102578.34
2023-01-22T09:58:21.642Z,102573.52
2023-01-22T10:01:00.410Z,102573.52
2023-01-22T10:03:38.412Z,102575.85
2023-01-22T10:06:15.014Z,102579.92
2023-01-22T10:08:59.024Z,102580.33
2023-01-22T10:11:32.079Z,102582.52
2023-01-22T10:14:08.554Z,102580.58
2023-01-22T10:16:42.977Z,102580.70
2023-01-22T10:19:25.318Z,102580.44
2023-01-22T10:22:03.072Z,102584.80
2023-01-22T10:24:36.687Z,102586.02
2023-01-22T10:27:17.986Z,102585.49
2023-01-22T10:30:00.974Z,102587.42
2023-01-22T10:32:35.421Z,102584.95
2023-01-22T10:35:18.248Z,102585.27
2023-01-22T10:37:53.690Z,102583.10
2023-01-22T10:40:31.042Z,102586.42
2023-01-22T10:43:07.442Z,102585.20
2023-01-22T10:45:40.520Z,102581.68
2023-01-22T10:48:18.764Z,102582.74
2023-01-22T10:51:13.563Z,102583.98
2023-01-22T10:53:51.545Z,102584.52
2023-01-22T10:56:33.813Z,102584.08
2023-01-22T10:59:24.448Z,102587.25
2023-01-22T11:02:03.189Z,102586.54
2023-01-22T11:04:36.733Z,102584.49
2023-01-22T11:07:15.629Z,102580.23
2023-01-22T11:09:52.828Z,102577.35
2023-01-22T11:12:30.674Z,102577.74
2023-01-22T11:15:10.967Z,102578.51
2023-01-22T11:17:48.274Z,102577.20
2023-01-22T11:20:26.164Z,102577.27
2023-01-22T11:23:15.815Z,102574.88
2023-01-22T11:26:00.435Z,102575.73
2023-01-22T11:28:42.821Z,102577.92
2023-01-22T11:31:27.734Z,102582.33
2023-01-22T11:34:21.490Z,102585.60
2023-01-22T11:37:02.358Z,102584.89
2023-01-22T11:39:53.889Z,102583.45
2023-01-22T11:42:44.232Z,102586.91
2023-01-22T11:45:44.293Z,102584.70
2023-01-22T11:48:31.461Z,102589.02
2023-01-22T11:51:17.312Z,102591.27
2023-01-22T11:54:05.384Z,102584.27
2023-01-22T11:56:51.252Z,102584.02
2023-01-22T11:59:38.035Z,102583.59
2023-01-22T12:02:30.595Z,102583.48
2023-01-22T12:05:17.074Z,102586.53
2023-01-22T12:08:01.148Z,102586.16
2023-01-22T12:10:50.602Z,102586.27
2023-01-22T12:13:40.728Z,102586.84
2023-01-22T12:16:23.138Z,102588.98
2023-01-22T12:19:11.359Z,102584.16
2023-01-22T12:21:56.810Z,102586.50
2023-01-22T12:24:35.721Z,102586.10
2023-01-22T12:27:15.935Z,102583.23
2023-01-22T12:29:54.991Z,102585.46
2023-01-22T12:32:30.902Z,102583.16
2023-01-22T12:35:08.991Z,102584.61
2023-01-22T12:37:46.507Z,102581.84
2023-01-22T12:40:52.033Z,102580.35
2023-01-22T12:43:34.856Z,102582.46
2023-01-22T12:46:26.259Z,102584.19
2023-01-22T12:49:07.308Z,102581.09
2023-01-22T12:51:43.496Z,102584.63
2023-01-22T12:54:32.415Z,102581.55
2023-01-22T12:57:24.055Z,102585.31
2023-01-22T12:59:58.304Z,102588.95
2023-01-22T13:02:40.235Z,102591.30
2023-01-22T13:05:47.131Z,102590.63
2023-01-22T13:08:38.894Z,102598.55
2023-01-22T13:11:14.101Z,102599.42
2023-01-22T13:13:53.983Z,102606.02
2023-01-22T13:16:33.026Z,102607.33
2023-01-22T13:19:21.400Z,102612.27
2023-01-22T13:21:58.102Z,102613.56
2023-01-22T13:24:32.016Z,102610.54
2023-01-22T13:27:07.208Z,102610.73
2023-01-22T13:29:42.839Z,102613.33
2023-01-22T13:32:23.480Z,102615.63
2023-01-22T13:35:05.077Z,102611.21
2023-01-22T13:37:39.007Z,102612.20
2023-01-22T13:40:24.185Z,102609.54
2023-01-22T13:42:59.840Z,102612.75
2023-01-22T13:45:35.237Z,102614.64
2023-01-22T13:48:13.110Z,102614.16
2023-01-22T13:50:52.782Z,102618.83
2023-01-22T13:53:33.377Z,102619.02
2023-01-22T13:56:12.699Z,102622.23
2023-01-22T13:58:48.613Z,102623.41
2023-01-22T14:01:34.597Z,102628.86
2023-01-22T14:04:25.279Z,102622.36
2023-01-22T14:06:59.940Z,102626.44
2023-01-22T14:09:35.865Z,102626.48
2023-01-22T14:12:19.823Z,102625.30
2023-01-22T14:14:54.063Z,102628.75
2023-01-22T14:17:32.500Z,102626.86
2023-01-22T14:20:07.196Z,102627.59
2023-01-22T14:22:40.767Z,102627.73
2023-01-22T14:25:16.444Z,102630.22
2023-01-22T14:27:51.661Z,102634.77
2023-01-22T14:30:25.479Z,102641.22
2023-01-22T14:33:00.035Z,102642.23
2023-01-22T14:35:33.210Z,102644.39
2023-01-22T14:38:06.975Z,102647.66
2023-01-22T14:40:39.877Z,102655.00
2023-01-22T14:43:14.158Z,102651.64
2023-01-22T14:45:51.715Z,102651.13
2023-01-22T14:48:25.645Z,102652.64
2023-01-22T14:50:58.929Z,102656.25
2023-01-22T14:53:33.020Z,102660.32
2023-01-22T14:56:06.933Z,102658.75
2023-01-22T14:58:41.756Z,102661.38
2023-01-22T15:01:23.750Z,102661.91
2023-01-22T15:03:57.491Z,102660.95
2023-01-22T15:06:32.010Z,102664.79
2023-01-22T15:09:05.736Z,102670.82
2023-01-22T15:11:39.403Z,102669.86
2023-01-22T15:14:12.085Z,102675.65
2023-01-22T15:16:45.526Z,102679.19
2023-01-22T15:19:19.250Z,102682.23
2023-01-22T15:21:52.977Z,102686.96
2023-01-22T15:24:26.877Z,102690.34
2023-01-22T15:26:59.619Z,102690.70
2023-01-22T15:29:32.293Z,102689.95
2023-01-22T15:32:06.382Z,102692.86
2023-01-22T15:34:39.917Z,102695.52
2023-01-22T15:37:14.932Z,102700.55
2023-01-22T15:39:47.984Z,102699.66
2023-01-22T15:42:21.334Z,102699.71
2023-01-22T15:44:54.285Z,102700.52
2023-01-22T15:47:27.643Z,102702.52
2023-01-22T15:50:01.277Z,102704.04
2023-01-22T15:52:35.234Z,102709.67
2023-01-22T15:55:10.347Z,102714.65
2023-01-22T15:57:44.085Z,102713.48
2023-01-22T16:00:21.163Z,102713.39
2023-01-22T16:02:54.806Z,102715.30
2023-01-22T16:05:28.041Z,102720.55
2023-01-22T16:08:03.075Z,102721.63
2023-01-22T16:10:38.057Z,102724.92
2023-01-22T16:13:11.374Z,102725.28
2023-01-22T16:15:45.809Z,102728.96
2023-01-22T16:18:20.006Z,102731.20
2023-01-22T16:20:56.677Z,102728.49
2023-01-22T16:23:30.647Z,102728.91
2023-01-22T16:26:05.935Z,102734.65
2023-01-22T16:28:40.481Z,102734.50
2023-01-22T16:31:16.262Z,102733.48
2023-01-22T16:33:52.261Z,102733.66
2023-01-22T16:36:29.144Z,102732.62
2023-01-22T16:39:05.835Z,102736.52
2023-01-22T16:41:41.731Z,102737.38
2023-01-22T16:44:16.197Z,102739.70
2023-01-22T16:46:52.399Z,102742.79
2023-01-22T16:49:27.387Z,102744.40
2023-01-22T16:52:16.528Z,102750.27
2023-01-22T16:54:54.991Z,102754.17
2023-01-22T16:57:27.628Z,102755.10
2023-01-22T17:00:00.826Z,102759.07
2023-01-22T17:02:34.837Z,102756.55
2023-01-22T17:05:13.394Z,102762.77
2023-01-22T17:07:47.749Z,102759.11
2023-01-22T17:10:22.192Z,102763.10
2023-01-22T17:12:55.846Z,102767.55
2023-01-22T17:15:29.517Z,102769.25
2023-01-22T17:18:03.744Z,102770.67
2023-01-22T17:20:37.957Z,102771.86
2023-01-22T17:23:11.931Z,102772.77
2023-01-22T17:25:44.941Z,102779.09
2023-01-22T17:28:18.512Z,102781.46
2023-01-22T17:30:51.741Z,102781.79
2023-01-22T17:33:24.950Z,102784.95
2023-01-22T17:36:02.389Z,102783.59
2023-01-22T17:38:38.531Z,102788.56
2023-01-22T17:41:14.795Z,102789.77
2023-01-22T17:43:52.175Z,102797.10
2023-01-22T17:46:31.564Z,102800.89
2023-01-22T17:49:05.062Z,102808.02
2023-01-22T17:51:38.152Z,102809.26
2023-01-22T17:54:10.887Z,102812.36
2023-01-22T17:56:48.232Z,102812.58
2023-01-22T17:59:23.851Z,102816.47
2023-01-22T18:01:56.597Z,102816.64
2023-01-22T18:04:34.772Z,102818.56
2023-01-22T18:07:08.245Z,102823.49
2023-01-22T18:09:43.081Z,102827.31
2023-01-22T18:12:16.124Z,102831.44
2023-01-22T18:14:49.002Z,102833.60
2023-01-22T18:17:21.798Z,102833.56
2023-01-22T18:19:55.327Z,102838.17
2023-01-22T18:22:28.627Z,102838.66
2023-01-22T18:25:01.793Z,102836.80
2023-01-22T18:27:34.849Z,102839.34
2023-01-22T18:30:10.075Z,102838.15
2023-01-22T18:32:42.760Z,102840.86
2023-01-22T18:35:16.022Z,102839.96
2023-01-22T18:37:51.449Z,102840.48
2023-01-22T18:40:25.436Z,102841.63
2023-01-22T18:42:59.195Z,102838.41
2023-01-22T18:45:31.963Z,102838.30
2023-01-22T18:48:05.145Z,102834.01
2023-01-22T18:50:38.700Z,102838.50
2023-01-22T18:53:12.244Z,102836.48
2023-01-22T18:55:45.622Z,102840.83
2023-01-22T18:58:27.458Z,102842.65
2023-01-22T19:01:10.089Z,102845.18
2023-01-22T19:03:45.336Z,102846.87
2023-01-22T19:06:21.111Z,102850.48
2023-01-22T19:09:03.708Z,102853.16
2023-01-22T19:11:40.791Z,102849.45
2023-01-22T19:14:16.925Z,102847.16
2023-01-22T19:16:50.931Z,102849.34
2023-01-22T19:19:24.830Z,102859.46
2023-01-22T19:21:58.385Z,102860.04
2023-01-22T19:24:33.076Z,102869.68
2023-01-22T19:27:06.271Z,102874.52
2023-01-22T19:29:39.801Z,102874.91
2023-01-22T19:32:15.220Z,102883.36
2023-01-22T19:34:48.340Z,102886.77
2023-01-22T19:37:21.469Z,102881.48
2023-01-22T19:39:54.570Z,102881.42
2023-01-22T19:42:28.810Z,102881.86
2023-01-22T19:45:01.562Z,102884.27
2023-01-22T19:47:34.711Z,102888.10
2023-01-22T19:50:10.381Z,102886.45
2023-01-22T19:52:43.379Z,102885.40
2023-01-22T19:55:20.118Z,102888.33
2023-01-22T19:57:54.952Z,102888.65
2023-01-22T20:00:29.527Z,102889.41
2023-01-22T20:03:06.767Z,102889.73
2023-01-22T20:05:44.213Z,102892.45
2023-01-22T20:08:16.980Z,102893.02
2023-01-22T20:11:01.304Z,102895.01
2023-01-22T20:13:35.051Z,102892.61
2023-01-22T20:16:17.257Z,102891.06
2023-01-22T20:18:50.764Z,102886.02
2023-01-22T20:21:26.679Z,102891.10
2023-01-22T20:23:59.467Z,102891.66
2023-01-22T20:26:32.353Z,102893.17
2023-01-22T20:29:05.200Z,102893.93
2023-01-22T20:31:38.112Z,102901.16
2023-01-22T20:34:10.878Z,102897.50
2023-01-22T20:36:43.591Z,102899.48
2023-01-22T20:39:17.515Z,102903.47
2023-01-22T20:41:50.819Z,102904.77
2023-01-22T20:44:23.819Z,102904.29
2023-01-22T20:46:57.724Z,102903.65
2023-01-22T20:49:32.913Z,102905.66
2023-01-22T20:52:06.411Z,102903.21
2023-01-22T20:54:49.976Z,102907.11
2023-01-22T20:57:28.011Z,102909.49
2023-01-22T21:00:01.700Z,102912.09
2023-01-22T21:02:35.650Z,102913.04
2023-01-22T21:05:09.786Z,102913.33
2023-01-22T21:07:43.487Z,102916.46
2023-01-22T21:10:17.201Z,102917.37
2023-01-22T21:12:50.399Z,102918.96
2023-01-22T21:15:23.102Z,102921.19
2023-01-22T21:17:56.053Z,102922.10
2023-01-22T21:20:30.272Z,102920.40
2023-01-22T21:23:03.885Z,102918.86
2023-01-22T21:25:39.906Z,102914.20
2023-01-22T21:28:12.769Z,102918.73
2023-01-22T21:30:45.688Z,102915.83
2023-01-22T21:33:19.472Z,102920.42
2023-01-22T21:35:53.919Z,102919.78
2023-01-22T21:38:27.962Z,102918.58
2023-01-22T21:41:09.816Z,102916.07
2023-01-22T21:44:02.672Z,102916.99
2023-01-22T21:46:39.438Z,102919.63
2023-01-22T21:49:17.918Z,102917.48
2023-01-22T21:51:52.381Z,102915.98
2023-01-22T21:54:27.863Z,102914.36
2023-01-22T21:57:00.554Z,102909.30
2023-01-22T21:59:36.268Z,102914.16
2023-01-22T22:02:13.292Z,102916.94
2023-01-22T22:04:46.713Z,102919.24
2023-01-22T22:07:20.236Z,102916.14
2023-01-22T22:09:53.562Z,102913.21
2023-01-22T22:12:27.914Z,102913.57
2023-01-22T22:15:01.252Z,102914.65
2023-01-22T22:17:34.502Z,102917.38
2023-01-22T22:20:10.147Z,102919.65
2023-01-22T22:22:44.007Z,102924.65
2023-01-22T22:25:16.703Z,102926.80
2023-01-22T22:27:49.677Z,102929.41
2023-01-22T22:30:22.770Z,102928.85
2023-01-22T22:32:59.023Z,102930.02
2023-01-22T22:35:33.090Z,102932.30
2023-01-22T22:38:06.493Z,102928.47
2023-01-22T22:40:40.632Z,102928.82
2023-01-22T22:43:13.268Z,102927.68
2023-01-22T22:45:46.351Z,102928.45
2023-01-22T22:48:21.261Z,102929.40
2023-01-22T22:50:53.947Z,102935.50
2023-01-22T22:53:26.791Z,102931.98
2023-01-22T22:55:59.422Z,102932.44
2023-01-22T22:58:32.876Z,102934.27
2023-01-22T23:01:11.550Z,102941.09
2023-01-22T23:03:45.698Z,102948.19
2023-01-22T23:06:20.722Z,102953.02
2023-01-22T23:08:55.456Z,102952.89
2023-01-22T23:11:30.183Z,102960.77
2023-01-22T23:14:05.113Z,102963.98
2023-01-22T23:16:39.863Z,102965.83
2023-01-22T23:19:16.598Z,102969.04
2023-01-22T23:21:52.754Z,102972.56
2023-01-22T23:24:27.868Z,102973.20
2023-01-22T23:27:00.648Z,102970.00
2023-01-22T23:29:33.883Z,102968.49
2023-01-22T23:32:07.052Z,102972.14
2023-01-22T23:34:41.432Z,102977.65
2023-01-22T23:37:14.443Z,102980.08
2023-01-22T23:39:51.180Z,102982.69
2023-01-22T23:42:24.419Z,102983.44
2023-01-22T23:44:57.149Z,102987.86
2023-01-22T23:47:31.254Z,102982.81
2023-01-22T23:50:05.869Z,102983.44
2023-01-22T23:52:39.291Z,102982.76
2023-01-22T23:55:13.631Z,102982.08
2023-01-22T23:57:47.507Z,102987.20
